Madison Heights, Virginia
Current Conditions -  °F | °C
As of 3:54 AM on Friday 31 Oct 2014 (Local Time) from KLYH Reporting Station
Clear Clear  
Wind Chill: 38°   Ceiling: Unl
Heat Index: 38°   Visibility: 10mi
Dew Point: 35°   Wind: 3mph
Humidity: 89%   Direction: 350°N
Pressure: 30.02"   Gusts: NA
Location:  37.42°N, 79.12°W
Report Text: KLYH 310754Z AUTO 35003KT 10SM CLR 03/02 A3002 RMK AO2 SLP165 T00330017 $
Loading
Personal Weather Stations






























Interactive Weather Map
Tropical Storm Tracking
New forecast layout! Learn more

10-Day Weather Forecast

Advertisements
Track Severe Weather on mobile